Terminal Aerodrome Forecast
Issued by NWS

Home | Current Version | Previous Version | Text Only | Print | Product List | Glossary On
Versions: 1 2 3 4 5 6 7 8 9 10 11 12 13 14 15 16 17 18 19 20 21 22 23 24 25 26 27
000
FTUS44 KOHX 302300
TAFCKV
TAF
KCKV 302325Z 3100/3124 17004KT P6SM SCT030 OVC090
     FM310200 17004KT 4SM -SHRA BR SCT009 OVC020
      TEMPO 3109/3112 2SM -SHRA BR BKN009 OVC020
     FM311300 18008KT 4SM -SHRA BR OVC010
     FM311700 22010G20KT P6SM BKN025 OVC050
      TEMPO 3119/3123 BKN050=

USA.gov is the U.S. government's official web portal to all federal, state and local government web resources and services.